IBE1284 LQSA-OTHH
Flight info
| Callsign | IBE1284 |
|---|---|
| Flight time | N/A |
| Altitude | 33000 |
| Route | MITNO DCT GINAM DCT NISVA DCT DEDIN L614 ADORU UA4 VATCA UL333 ASMAP UT341 BAG UG8 GOBIT UL614 OTKEP UM688 RATVO DCT KEDIM DCT SISIN/N0468F350 DCT SIDAD P975 LONOS L703 HAYYA |
| Aircraft | A321/M-SDE3FGHIRWY/LB1 |
Departure
| Time | 2026-04-29 12:48 |
|---|---|
| Airport | Sarajevo International Airport (LQSA) |
Arrival
| Time | N/A |
|---|---|
| Airport | Hamad International Airport (OTHH) |
| Time | Latitude | Longitude | Altitude | Speed | Heading |
|---|---|---|---|---|---|
| 2026-04-29 12:10 | 43.82535 | 18.33626 | 1691 ft | 0 kts | 27° |
| 2026-04-29 12:40 | 43.82532 | 18.33624 | 1691 ft | 3 kts | 28° |
| 2026-04-29 12:40 | 43.82517 | 18.33612 | 1691 ft | 3 kts | 35° |
| 2026-04-29 12:40 | 43.82501 | 18.33594 | 1691 ft | 3 kts | 46° |
| 2026-04-29 12:41 | 43.82490 | 18.33573 | 1691 ft | 3 kts | 69° |
| 2026-04-29 12:41 | 43.82487 | 18.33550 | 1692 ft | 2 kts | 109° |
| 2026-04-29 12:41 | 43.82489 | 18.33543 | 1692 ft | 3 kts | 117° |
| 2026-04-29 12:44 | 43.82487 | 18.33547 | 1691 ft | 1 kts | 117° |
| 2026-04-29 12:44 | 43.82480 | 18.33567 | 1691 ft | 3 kts | 117° |
| 2026-04-29 12:44 | 43.82465 | 18.33606 | 1691 ft | 6 kts | 117° |
| 2026-04-29 12:44 | 43.82443 | 18.33666 | 1691 ft | 8 kts | 116° |
| 2026-04-29 12:45 | 43.82412 | 18.33750 | 1693 ft | 11 kts | 118° |
| 2026-04-29 12:45 | 43.82370 | 18.33862 | 1696 ft | 15 kts | 117° |
| 2026-04-29 12:45 | 43.82318 | 18.34002 | 1703 ft | 18 kts | 117° |
| 2026-04-29 12:45 | 43.82257 | 18.34165 | 1707 ft | 20 kts | 117° |
| 2026-04-29 12:46 | 43.82189 | 18.34343 | 1712 ft | 22 kts | 117° |
| 2026-04-29 12:46 | 43.82118 | 18.34534 | 1717 ft | 23 kts | 117° |
| 2026-04-29 12:46 | 43.82044 | 18.34624 | 1720 ft | 13 kts | 168° |
| 2026-04-29 12:46 | 43.81953 | 18.34589 | 1722 ft | 13 kts | 213° |
| 2026-04-29 12:47 | 43.81960 | 18.34477 | 1717 ft | 16 kts | 300° |
| 2026-04-29 12:47 | 43.82091 | 18.34132 | 1712 ft | 75 kts | 296° |
| 2026-04-29 12:47 | 43.82437 | 18.33209 | 1691 ft | 138 kts | 298° |
| 2026-04-29 12:47 | 43.82940 | 18.31850 | 1895 ft | 164 kts | 298° |
| 2026-04-29 12:48 | 43.83521 | 18.30528 | 2620 ft | 160 kts | 314° |
| 2026-04-29 12:48 | 43.84483 | 18.29801 | 3089 ft | 165 kts | 352° |
| 2026-04-29 12:48 | 43.85658 | 18.30131 | 3191 ft | 187 kts | 31° |
| 2026-04-29 12:48 | 43.86546 | 18.31523 | 3396 ft | 201 kts | 56° |
| 2026-04-29 12:49 | 43.87298 | 18.33202 | 3744 ft | 210 kts | 55° |
| 2026-04-29 12:49 | 43.88162 | 18.34910 | 4057 ft | 222 kts | 53° |
| 2026-04-29 12:49 | 43.89079 | 18.36688 | 4458 ft | 231 kts | 52° |
| 2026-04-29 12:49 | 43.90013 | 18.38515 | 5027 ft | 232 kts | 53° |
| 2026-04-29 12:50 | 43.90949 | 18.40338 | 5672 ft | 230 kts | 54° |
| 2026-04-29 12:50 | 43.91875 | 18.42146 | 6306 ft | 229 kts | 54° |
| 2026-04-29 12:50 | 43.92795 | 18.43955 | 6880 ft | 231 kts | 56° |
| 2026-04-29 12:50 | 43.93431 | 18.46015 | 7348 ft | 241 kts | 83° |
| 2026-04-29 12:51 | 43.93455 | 18.48421 | 7562 ft | 259 kts | 91° |
| 2026-04-29 12:51 | 43.93370 | 18.50997 | 7837 ft | 273 kts | 91° |